Time;durP1;ratioP1;P1;durP2;ratioP2;P2;SDS_P1;SDS_P2;PMS_P1;PMS_P2;Temp;Humidity;BMP_temperature;BMP_pressure;BME280_temperature;BME280_humidity;BME280_pressure;Samples;Min_cycle;Max_cycle;Signal;HPM_P1;HPM_P2
2022/05/02 00:00:59;;;;;;;1999.90;999.90;;;16.30;44.20;;;;;;5012786;28;20040;-81
2022/05/02 00:03:25;;;;;;;1999.90;999.90;;;16.20;44.20;;;;;;5013973;28;20065;-81
2022/05/02 00:05:51;;;;;;;1999.90;999.90;;;16.20;44.30;;;;;;5032057;28;20033;-81
2022/05/02 00:08:17;;;;;;;1999.90;999.90;;;16.20;44.30;;;;;;5029047;28;20048;-81
2022/05/02 00:10:43;;;;;;;1999.90;999.90;;;16.10;44.40;;;;;;5030317;28;20042;-81
2022/05/02 00:13:09;;;;;;;1999.90;999.90;;;16.10;44.50;;;;;;5021343;28;20030;-81
2022/05/02 00:15:37;;;;;;;1999.90;999.90;;;16.10;44.50;;;;;;5043487;28;20053;-81
2022/05/02 00:18:04;;;;;;;1999.90;999.90;;;16.00;44.60;;;;;;5044578;28;20034;-81
2022/05/02 00:20:35;;;;;;;1999.90;999.90;;;15.90;44.60;;;;;;5014671;28;20025;-81
2022/05/02 00:23:06;;;;;;;1999.90;999.90;;;15.90;44.60;;;;;;5028971;28;20096;-81
2022/05/02 00:25:32;;;;;;;1999.90;999.90;;;15.90;44.60;;;;;;5012563;28;20030;-81
2022/05/02 00:27:58;;;;;;;1999.90;999.90;;;15.90;44.60;;;;;;5030097;28;20088;-81
2022/05/02 00:30:24;;;;;;;1999.90;999.90;;;15.90;44.70;;;;;;5030407;28;20034;-81
2022/05/02 00:32:51;;;;;;;1999.90;999.90;;;15.90;44.70;;;;;;5031089;28;20036;-81
2022/05/02 00:35:17;;;;;;;1999.90;999.90;;;15.90;44.70;;;;;;5030022;28;20029;-81
2022/05/02 00:37:43;;;;;;;1999.90;999.90;;;15.90;44.80;;;;;;5038866;28;20029;-81
2022/05/02 00:40:11;;;;;;;1999.90;999.90;;;15.80;44.80;;;;;;5029791;28;20030;-81
2022/05/02 00:42:37;;;;;;;1999.90;999.90;;;15.80;44.90;;;;;;5012472;28;20034;-81
2022/05/02 00:45:07;;;;;;;1999.90;999.90;;;15.80;45.00;;;;;;5044324;28;20030;-81
2022/05/02 00:47:34;;;;;;;1999.90;999.90;;;15.70;45.10;;;;;;5030468;28;20033;-81
2022/05/02 00:50:04;;;;;;;1999.90;999.90;;;15.70;45.20;;;;;;5031268;28;20041;-81
2022/05/02 00:52:30;;;;;;;1999.90;999.90;;;15.60;45.20;;;;;;5029665;28;20037;-81
2022/05/02 00:54:57;;;;;;;1999.90;999.90;;;15.60;45.30;;;;;;5024304;28;20272;-81
2022/05/02 00:57:23;;;;;;;1999.90;999.90;;;15.50;45.30;;;;;;5030497;28;20109;-81
2022/05/02 00:59:49;;;;;;;1999.90;999.90;;;15.50;45.30;;;;;;5031708;28;20033;-81
2022/05/02 01:02:15;;;;;;;1999.90;999.90;;;15.60;45.40;;;;;;5028720;28;20505;-81
2022/05/02 01:04:42;;;;;;;1999.90;999.90;;;15.50;45.50;;;;;;5038691;28;20032;-81
2022/05/02 01:07:08;;;;;;;1999.90;999.90;;;15.50;45.50;;;;;;5029399;28;20029;-81
2022/05/02 01:09:41;;;;;;;1999.90;999.90;;;15.40;45.50;;;;;;5027197;28;20034;-81
2022/05/02 01:12:12;;;;;;;1999.90;999.90;;;15.40;45.60;;;;;;5022198;28;20033;-81
2022/05/02 01:14:38;;;;;;;1999.90;999.90;;;15.50;46.30;;;;;;5028906;28;20025;-81
2022/05/02 01:17:05;;;;;;;1999.90;999.90;;;15.40;45.60;;;;;;5028526;28;20052;-81
2022/05/02 01:19:31;;;;;;;1999.90;999.90;;;15.40;45.80;;;;;;5023315;28;20026;-81
2022/05/02 01:21:57;;;;;;;1999.90;999.90;;;15.40;45.80;;;;;;5029477;28;20037;-81
2022/05/02 01:24:36;;;;;;;1999.90;999.90;;;15.30;45.80;;;;;;5028230;28;20038;-81
2022/05/02 01:27:02;;;;;;;1999.90;999.90;;;15.30;45.90;;;;;;5027364;28;20381;-81
2022/05/02 01:29:30;;;;;;;1999.90;999.90;;;15.30;45.90;;;;;;5027615;28;20249;-81
2022/05/02 01:31:56;;;;;;;1999.90;999.90;;;15.30;45.90;;;;;;4993792;28;20514;-81
2022/05/02 01:34:22;;;;;;;1999.90;999.90;;;15.30;46.00;;;;;;5021661;28;20475;-81
2022/05/02 01:36:48;;;;;;;1999.90;999.90;;;15.30;46.10;;;;;;5028900;28;20037;-81
2022/05/02 01:39:15;;;;;;;1999.90;999.90;;;15.20;46.10;;;;;;5044592;28;20033;-81
2022/05/02 01:41:41;;;;;;;1999.90;999.90;;;15.20;46.20;;;;;;5028829;28;20033;-81
2022/05/02 01:44:07;;;;;;;1999.90;999.90;;;15.20;46.30;;;;;;5015111;28;20471;-81
2022/05/02 01:46:33;;;;;;;1999.90;999.90;;;15.10;46.30;;;;;;5031049;28;20037;-81
2022/05/02 01:48:59;;;;;;;1999.90;999.90;;;15.10;46.40;;;;;;5027961;28;20057;-81
2022/05/02 01:51:26;;;;;;;1999.90;999.90;;;15.10;46.50;;;;;;5012081;28;20045;-81
2022/05/02 01:53:52;;;;;;;1999.90;999.90;;;15.10;46.60;;;;;;5031342;28;20558;-81
2022/05/02 01:56:18;;;;;;;1999.90;999.90;;;15.00;46.60;;;;;;5028527;28;20042;-81
2022/05/02 01:58:44;;;;;;;1999.90;999.90;;;15.00;46.70;;;;;;5027902;28;20051;-81
2022/05/02 02:01:10;;;;;;;1999.90;999.90;;;15.00;46.70;;;;;;5024425;28;20042;-81
2022/05/02 02:03:36;;;;;;;1999.90;999.90;;;15.00;46.70;;;;;;5028404;28;20044;-81
2022/05/02 02:06:03;;;;;;;1999.90;999.90;;;15.00;46.80;;;;;;5026702;28;20041;-81
2022/05/02 02:08:30;;;;;;;1999.90;999.90;;;14.90;46.80;;;;;;5028649;28;20041;-81
2022/05/02 02:11:01;;;;;;;1999.90;999.90;;;14.90;46.80;;;;;;5028154;28;20033;-81
2022/05/02 02:13:27;;;;;;;1999.90;999.90;;;14.90;46.90;;;;;;5009534;28;20021;-81
2022/05/02 02:15:53;;;;;;;1999.90;999.90;;;14.90;46.90;;;;;;5027297;28;20056;-81
2022/05/02 02:18:19;;;;;;;1999.90;999.90;;;14.90;47.00;;;;;;5029708;28;20406;-81
2022/05/02 02:20:47;;;;;;;1999.90;999.90;;;14.90;47.00;;;;;;5030061;28;20032;-81
2022/05/02 02:23:13;;;;;;;1999.90;999.90;;;14.80;47.10;;;;;;5032754;28;20037;-81
2022/05/02 02:25:40;;;;;;;1999.90;999.90;;;14.80;47.20;;;;;;5031150;28;20379;-81
2022/05/02 02:28:06;;;;;;;1999.90;999.90;;;14.80;47.30;;;;;;5011383;28;20414;-81
2022/05/02 02:30:32;;;;;;;1999.90;999.90;;;14.70;47.40;;;;;;5027387;28;20033;-81
2022/05/02 02:32:59;;;;;;;1999.90;999.90;;;14.70;47.50;;;;;;5025988;28;20025;-81
2022/05/02 02:35:25;;;;;;;1999.90;999.90;;;14.70;47.50;;;;;;5031018;28;20037;-81
2022/05/02 02:37:51;;;;;;;1999.90;999.90;;;14.70;47.50;;;;;;5030885;28;20419;-81
2022/05/02 02:40:17;;;;;;;1999.90;999.90;;;14.70;47.50;;;;;;5012801;28;20049;-81
2022/05/02 02:42:44;;;;;;;1999.90;999.90;;;14.70;47.50;;;;;;5026278;28;20037;-81
2022/05/02 02:45:10;;;;;;;1999.90;999.90;;;14.70;47.50;;;;;;5042195;28;20030;-81
2022/05/02 02:47:36;;;;;;;1999.90;999.90;;;14.70;47.50;;;;;;5027236;28;20466;-81
2022/05/02 02:50:02;;;;;;;1999.90;999.90;;;14.70;47.50;;;;;;5010166;28;20026;-81
2022/05/02 02:52:29;;;;;;;1999.90;999.90;;;14.70;47.50;;;;;;5009913;28;20500;-81
2022/05/02 02:54:55;;;;;;;1999.90;999.90;;;14.70;47.40;;;;;;5028753;28;20021;-81
2022/05/02 02:57:21;;;;;;;1999.90;999.90;;;14.80;47.50;;;;;;5026506;28;20485;-81
2022/05/02 02:59:47;;;;;;;1999.90;999.90;;;14.80;47.40;;;;;;5029623;28;20033;-81
2022/05/02 03:02:13;;;;;;;1999.90;999.90;;;14.80;47.40;;;;;;5015241;28;20395;-81
2022/05/02 03:07:24;;;;;;;1999.90;999.90;;;14.80;47.50;;;;;;5016566;28;20033;-81
2022/05/02 03:09:51;;;;;;;1999.90;999.90;;;14.80;47.50;;;;;;5009929;28;20030;-81
2022/05/02 03:12:17;;;;;;;1999.90;999.90;;;14.70;47.50;;;;;;5037420;28;20414;-81
2022/05/02 03:14:43;;;;;;;1999.90;999.90;;;14.70;47.60;;;;;;5032114;28;20378;-81
2022/05/02 03:17:10;;;;;;;1999.90;999.90;;;14.70;47.70;;;;;;5031857;28;20458;-81
2022/05/02 03:19:36;;;;;;;1999.90;999.90;;;14.60;47.70;;;;;;5031449;28;20501;-81
2022/05/02 03:22:03;;;;;;;1999.90;999.90;;;14.60;47.80;;;;;;5042533;28;20040;-81
2022/05/02 03:24:29;;;;;;;1999.90;999.90;;;14.60;47.90;;;;;;5031765;28;20044;-81
2022/05/02 03:26:55;;;;;;;1999.90;999.90;;;14.50;48.00;;;;;;5032909;28;20029;-81
2022/05/02 03:29:21;;;;;;;1999.90;999.90;;;14.50;48.10;;;;;;5031284;28;20026;-81
2022/05/02 03:31:47;;;;;;;1999.90;999.90;;;14.50;48.20;;;;;;5039023;28;20406;-81
2022/05/02 03:34:13;;;;;;;1999.90;999.90;;;14.40;48.10;;;;;;5031990;28;20036;-81
2022/05/02 03:36:39;;;;;;;1999.90;999.90;;;14.40;48.10;;;;;;5013949;28;20053;-81
2022/05/02 03:39:05;;;;;;;1999.90;999.90;;;14.40;48.20;;;;;;5046122;28;20030;-81
2022/05/02 03:41:31;;;;;;;1999.90;999.90;;;14.40;48.30;;;;;;5014057;28;20386;-81
2022/05/02 03:43:58;;;;;;;1999.90;999.90;;;14.30;48.40;;;;;;5034242;28;20387;-81
2022/05/02 03:46:24;;;;;;;1999.90;999.90;;;14.30;48.40;;;;;;5030381;28;20383;-81
2022/05/02 03:48:50;;;;;;;1999.90;999.90;;;14.30;48.40;;;;;;5042745;28;20422;-81
2022/05/02 03:51:17;;;;;;;1999.90;999.90;;;14.30;48.50;;;;;;5046620;28;20060;-82
2022/05/02 03:53:43;;;;;;;1999.90;999.90;;;14.30;48.60;;;;;;5032292;28;20475;-81
2022/05/02 03:56:09;;;;;;;1999.90;999.90;;;14.20;48.50;;;;;;5030344;28;20040;-81
2022/05/02 03:58:35;;;;;;;1999.90;999.90;;;14.20;48.50;;;;;;5030728;28;20025;-82
2022/05/02 04:01:02;;;;;;;1999.90;999.90;;;14.20;48.50;;;;;;5041221;28;20466;-82
2022/05/02 04:03:28;;;;;;;1999.90;999.90;;;14.20;48.50;;;;;;5013387;28;20045;-82
2022/05/02 04:05:54;;;;;;;1999.90;999.90;;;14.20;48.60;;;;;;4996985;28;20038;-81
2022/05/02 04:08:20;;;;;;;1999.90;999.90;;;14.20;48.60;;;;;;5029688;28;20029;-82
2022/05/02 04:10:46;;;;;;;1999.90;999.90;;;14.20;48.60;;;;;;5038961;28;20502;-82
2022/05/02 04:13:12;;;;;;;1999.90;999.90;;;14.20;48.60;;;;;;5017141;28;20053;-81
2022/05/02 04:15:39;;;;;;;1999.90;999.90;;;14.20;48.60;;;;;;5028545;28;20037;-82
2022/05/02 04:18:05;;;;;;;1999.90;999.90;;;14.20;48.70;;;;;;5033174;28;20398;-82
2022/05/02 04:20:31;;;;;;;1999.90;999.90;;;14.20;48.70;;;;;;5015926;28;20049;-82
2022/05/02 04:22:57;;;;;;;1999.90;999.90;;;14.20;48.70;;;;;;5029894;28;20021;-81
2022/05/02 04:25:23;;;;;;;1999.90;999.90;;;14.20;48.80;;;;;;5041060;28;20041;-82
2022/05/02 04:27:49;;;;;;;1999.90;999.90;;;14.20;48.90;;;;;;5030612;28;20117;-82
2022/05/02 04:30:16;;;;;;;1999.90;999.90;;;14.10;48.90;;;;;;5045280;28;20395;-82
2022/05/02 04:32:42;;;;;;;1999.90;999.90;;;14.10;49.00;;;;;;5015907;28;20033;-82
2022/05/02 04:35:10;;;;;;;1999.90;999.90;;;14.10;49.10;;;;;;5025609;28;20029;-82
2022/05/02 04:37:37;;;;;;;1999.90;999.90;;;14.00;49.10;;;;;;5033118;28;20374;-82
2022/05/02 04:40:04;;;;;;;1999.90;999.90;;;14.00;49.10;;;;;;5015013;28;20037;-82
2022/05/02 04:42:30;;;;;;;1999.90;999.90;;;14.00;49.20;;;;;;5013654;28;20048;-82
2022/05/02 04:44:56;;;;;;;1999.90;999.90;;;14.00;49.30;;;;;;5031908;28;20378;-82
2022/05/02 04:47:23;;;;;;;1999.90;999.90;;;13.90;49.30;;;;;;5029287;28;20069;-82
2022/05/02 04:49:49;;;;;;;1999.90;999.90;;;13.90;49.30;;;;;;5037946;28;20037;-82
2022/05/02 04:52:15;;;;;;;1999.90;999.90;;;13.90;49.40;;;;;;5032067;28;20398;-81
2022/05/02 04:54:41;;;;;;;1999.90;999.90;;;13.90;49.40;;;;;;5012042;28;20030;-82
2022/05/02 04:57:07;;;;;;;1999.90;999.90;;;13.90;49.40;;;;;;5027675;28;20034;-82
2022/05/02 04:59:34;;;;;;;1999.90;999.90;;;13.80;49.40;;;;;;5031962;28;20053;-82
2022/05/02 05:02:00;;;;;;;1999.90;999.90;;;13.80;49.50;;;;;;5035655;28;20516;-82
2022/05/02 05:04:26;;;;;;;1999.90;999.90;;;13.80;49.50;;;;;;5032199;28;20040;-82
2022/05/02 05:06:52;;;;;;;1999.90;999.90;;;13.80;49.60;;;;;;5029090;28;20041;-81
2022/05/02 05:09:19;;;;;;;1999.90;999.90;;;13.80;49.60;;;;;;5028499;28;20033;-82
2022/05/02 05:12:14;;;;;;;1999.90;999.90;;;13.80;49.70;;;;;;5026520;28;20033;-82
2022/05/02 05:18:14;;;;;;;1999.90;999.90;;;13.70;49.70;;;;;;5002400;28;20050;-82
2022/05/02 05:21:07;;;;;;;1999.90;999.90;;;13.70;49.70;;;;;;5010279;28;20050;-82
2022/05/02 05:24:07;;;;;;;1999.90;999.90;;;13.70;49.70;;;;;;5005961;28;20034;-82
2022/05/02 05:26:49;;;;;;;1999.90;999.90;;;13.80;49.70;;;;;;5008519;28;20375;-82
2022/05/02 05:29:30;;;;;;;1999.90;999.90;;;13.70;49.70;;;;;;4975206;28;20042;-82
2022/05/02 05:32:15;;;;;;;1999.90;999.90;;;13.70;49.70;;;;;;4989443;28;20046;-82
2022/05/02 05:35:05;;;;;;;1999.90;999.90;;;13.70;49.80;;;;;;5007746;28;20030;-82
2022/05/02 05:38:02;;;;;;;1999.90;999.90;;;13.70;50.50;;;;;;5008840;28;20038;-82
2022/05/02 05:40:36;;;;;;;1999.90;999.90;;;13.70;50.00;;;;;;4973648;28;20025;-82
2022/05/02 05:43:31;;;;;;;1999.90;999.90;;;13.70;50.10;;;;;;4993847;28;20037;-82
2022/05/02 05:46:00;;;;;;;1999.90;999.90;;;13.70;50.30;;;;;;4993466;28;20035;-82
2022/05/02 05:49:05;;;;;;;1999.90;999.90;;;13.60;50.40;;;;;;5008820;28;20033;-82
2022/05/02 05:51:34;;;;;;;1999.90;999.90;;;13.60;50.50;;;;;;4969769;28;20510;-82
2022/05/02 05:54:37;;;;;;;1999.90;999.90;;;13.60;50.50;;;;;;4974020;28;20416;-82
2022/05/02 05:57:21;;;;;;;1999.90;999.90;;;13.60;50.50;;;;;;5006041;28;20053;-82
2022/05/02 06:00:09;;;;;;;1999.90;999.90;;;13.60;50.50;;;;;;5008383;28;20431;-82
2022/05/02 06:02:55;;;;;;;1999.90;999.90;;;13.60;50.50;;;;;;4991673;28;20038;-82
2022/05/02 06:05:21;;;;;;;1999.90;999.90;;;13.60;50.60;;;;;;4990412;28;20487;-82
2022/05/02 06:07:47;;;;;;;1999.90;999.90;;;13.60;50.60;;;;;;4989914;28;20034;-82
2022/05/02 06:10:16;;;;;;;1999.90;999.90;;;13.60;50.60;;;;;;4992383;28;20414;-82
2022/05/02 06:12:43;;;;;;;1999.90;999.90;;;13.60;50.60;;;;;;4973729;28;20562;-82
2022/05/02 06:20:43;;;;;;;1999.90;999.90;;;13.70;50.90;;;;;;4987955;28;20030;-82
2022/05/02 06:23:14;;;;;;;1999.90;999.90;;;13.70;50.90;;;;;;4989719;28;20049;-82
2022/05/02 06:25:40;;;;;;;1999.90;999.90;;;13.70;50.90;;;;;;4989599;28;20045;-82
2022/05/02 06:28:07;;;;;;;1999.90;999.90;;;13.70;50.90;;;;;;5001278;28;20398;-82
2022/05/02 06:30:39;;;;;;;1999.90;999.90;;;13.80;50.90;;;;;;5027716;28;20486;-82
2022/05/02 06:33:12;;;;;;;1999.90;999.90;;;13.80;50.90;;;;;;5026144;28;20037;-82
2022/05/02 06:36:12;;;;;;;1999.90;999.90;;;13.80;50.80;;;;;;5012667;28;20037;-82
2022/05/02 06:38:55;;;;;;;1999.90;999.90;;;13.90;50.80;;;;;;5030797;28;20036;-82
2022/05/02 06:41:54;;;;;;;1999.90;999.90;;;14.00;50.70;;;;;;5034225;28;20052;-82
2022/05/02 06:44:32;;;;;;;1999.90;999.90;;;14.20;50.80;;;;;;5027679;28;20064;-82
2022/05/02 06:47:23;;;;;;;1999.90;999.90;;;14.30;50.70;;;;;;5027138;28;20378;-83
2022/05/02 06:49:51;;;;;;;1999.90;999.90;;;14.50;50.60;;;;;;5035686;28;20064;-82
2022/05/02 06:52:23;;;;;;;1999.90;999.90;;;14.60;50.30;;;;;;5012651;28;20038;-82
2022/05/02 06:54:55;;;;;;;;;;;14.80;50.20;;;;;;5028213;28;20044;-82
2022/05/02 06:57:29;;;;;;;1999.90;999.90;;;14.90;50.10;;;;;;5027939;28;19924;-82
2022/05/02 07:00:05;;;;;;;1999.90;999.90;;;15.10;49.90;;;;;;5029575;28;20036;-83
2022/05/02 07:02:40;;;;;;;1999.90;999.90;;;15.10;49.80;;;;;;5026271;28;20529;-82
2022/05/02 07:05:11;;;;;;;1999.90;999.90;;;15.10;49.90;;;;;;5026308;28;20109;-83
2022/05/02 07:07:52;;;;;;;1999.90;999.90;;;15.10;50.00;;;;;;5012654;28;20041;-82
2022/05/02 07:10:23;;;;;;;;;;;15.20;50.10;;;;;;5026595;28;20041;-82
2022/05/02 07:13:24;;;;;;;1999.90;999.90;;;15.20;50.00;;;;;;5018845;28;19922;-82
2022/05/02 07:16:08;;;;;;;1999.90;999.90;;;15.30;49.90;;;;;;5013585;28;20278;-82
2022/05/02 07:18:40;;;;;;;1999.90;999.90;;;15.40;49.90;;;;;;5012279;28;20029;-83
2022/05/02 07:21:16;;;;;;;1999.90;999.90;;;15.60;49.80;;;;;;5042214;28;20037;-83
2022/05/02 07:23:55;;;;;;;1999.90;999.90;;;15.80;49.50;;;;;;5027400;28;20476;-83
2022/05/02 07:26:22;;;;;;;1999.90;999.90;;;16.00;49.30;;;;;;5025898;28;20029;-83
2022/05/02 07:28:49;;;;;;;1999.90;999.90;;;16.10;49.20;;;;;;5027249;28;20044;-83
2022/05/02 07:31:19;;;;;;;1999.90;999.90;;;16.20;49.10;;;;;;5028247;28;20029;-83
2022/05/02 07:33:47;;;;;;;1999.90;999.90;;;16.30;49.00;;;;;;5026834;28;20506;-82
2022/05/02 07:36:15;;;;;;;1999.90;999.90;;;16.40;48.90;;;;;;5009940;28;20641;-83
2022/05/02 07:38:41;;;;;;;1999.90;999.90;;;16.50;48.90;;;;;;4993214;28;20114;-83
2022/05/02 07:41:23;;;;;;;1999.90;999.90;;;16.70;49.40;;;;;;5009606;28;20036;-83
2022/05/02 07:43:57;;;;;;;1999.90;999.90;;;17.00;48.50;;;;;;5016096;28;20625;-83
2022/05/02 07:46:47;;;;;;;1999.90;999.90;;;17.30;48.20;;;;;;5014862;28;20034;-83
2022/05/02 07:49:23;;;;;;;1999.90;999.90;;;17.40;48.00;;;;;;5026744;28;20038;-83
2022/05/02 07:51:50;;;;;;;1999.90;999.90;;;17.50;47.90;;;;;;5022733;28;20030;-83
2022/05/02 07:54:21;;;;;;;1999.90;999.90;;;17.70;47.70;;;;;;5029266;28;20509;-83
2022/05/02 07:56:47;;;;;;;;;;;17.80;47.60;;;;;;5029432;28;20394;-83
2022/05/02 07:59:15;;;;;;;1999.90;999.90;;;17.90;47.60;;;;;;5009650;28;19906;-83
2022/05/02 08:01:41;;;;;;;1999.90;999.90;;;17.90;47.50;;;;;;5028581;28;20037;-83
2022/05/02 08:04:11;;;;;;;1999.90;999.90;;;17.90;47.60;;;;;;5041822;28;20033;-83
2022/05/02 08:06:57;;;;;;;1999.90;999.90;;;17.90;47.60;;;;;;5013354;28;20475;-83
2022/05/02 08:09:53;;;;;;;1999.90;999.90;;;17.90;47.50;;;;;;5030328;28;20037;-82
2022/05/02 08:12:36;;;;;;;1999.90;999.90;;;17.90;47.70;;;;;;5011700;28;20406;-82
2022/05/02 08:15:11;;;;;;;1999.90;999.90;;;17.80;47.60;;;;;;5011305;28;20041;-83
2022/05/02 08:17:43;;;;;;;1999.90;999.90;;;17.80;48.10;;;;;;5009206;28;20056;-82
2022/05/02 08:20:18;;;;;;;1999.90;999.90;;;17.90;47.40;;;;;;5027954;28;20026;-82
2022/05/02 08:29:00;;;;;;;1999.90;999.90;;;18.20;47.10;;;;;;5014643;28;20029;-82
2022/05/02 08:31:51;;;;;;;1999.90;999.90;;;18.40;46.90;;;;;;5010258;28;20406;-82
2022/05/02 08:34:34;;;;;;;1999.90;999.90;;;18.40;46.50;;;;;;5011207;28;20033;-82
2022/05/02 08:37:06;;;;;;;1999.90;999.90;;;18.50;46.40;;;;;;5007915;28;20441;-81
2022/05/02 08:39:47;;;;;;;1999.90;999.90;;;18.60;46.30;;;;;;5012122;28;20529;-81
2022/05/02 08:42:41;;;;;;;1999.90;999.90;;;18.70;46.20;;;;;;5029982;28;20050;-82
2022/05/02 08:45:18;;;;;;;1999.90;999.90;;;18.90;45.90;;;;;;5026422;28;20588;-81
2022/05/02 08:48:05;;;;;;;1999.90;999.90;;;19.10;45.80;;;;;;5014218;28;20037;-82
2022/05/02 08:50:43;;;;;;;1999.90;999.90;;;19.30;45.60;;;;;;5030374;28;20037;-81
2022/05/02 08:53:34;;;;;;;1999.90;999.90;;;19.50;45.20;;;;;;5029754;28;20041;-82
2022/05/02 08:56:19;;;;;;;;;;;19.70;44.70;;;;;;5036775;28;20406;-82
2022/05/02 08:59:03;;;;;;;1999.90;999.90;;;19.80;44.60;;;;;;5029346;28;19912;-81
2022/05/02 09:02:03;;;;;;;1999.90;999.90;;;19.80;44.30;;;;;;5028064;28;20040;-82
2022/05/02 09:04:44;;;;;;;1999.90;999.90;;;19.70;44.30;;;;;;5040605;28;20036;-82
2022/05/02 09:07:17;;;;;;;;;;;19.80;44.30;;;;;;5029895;28;20045;-82
2022/05/02 09:10:15;;;;;;;1999.90;999.90;;;19.90;44.10;;;;;;5028095;28;19905;-82
2022/05/02 09:12:50;;;;;;;1999.90;999.90;;;20.10;43.90;;;;;;5022539;28;20037;-82
2022/05/02 09:15:43;;;;;;;1999.90;999.90;;;20.20;43.60;;;;;;5044465;28;20052;-82
2022/05/02 09:18:31;;;;;;;1999.90;999.90;;;20.30;43.50;;;;;;5044855;28;20042;-82
2022/05/02 09:21:10;;;;;;;1999.90;999.90;;;20.40;43.00;;;;;;5033078;28;20033;-82
2022/05/02 09:24:11;;;;;;;1999.90;999.90;;;20.40;42.90;;;;;;5020222;28;20046;-82
2022/05/02 09:27:14;;;;;;;1999.90;999.90;;;20.50;43.00;;;;;;5035079;28;20569;-82
2022/05/02 09:29:49;;;;;;;1999.90;999.90;;;20.50;42.60;;;;;;5030314;28;20491;-82
2022/05/02 09:32:17;;;;;;;1999.90;999.90;;;20.50;42.60;;;;;;5027372;28;20037;-82
2022/05/02 09:34:57;;;;;;;1999.90;999.90;;;20.50;42.50;;;;;;5021773;28;20496;-82
2022/05/02 09:37:32;;;;;;;1999.90;999.90;;;20.60;42.40;;;;;;5014989;28;20506;-82
2022/05/02 09:40:37;;;;;;;1999.90;999.90;;;20.60;42.00;;;;;;5027605;28;20386;-84
2022/05/02 09:43:11;;;;;;;1999.90;999.90;;;20.60;41.90;;;;;;4950686;28;20041;-83
2022/05/02 09:51:32;;;;;;;1999.90;999.90;;;20.80;41.40;;;;;;4995372;28;20026;-83
2022/05/02 09:57:23;;;;;;;1999.90;999.90;;;20.90;41.10;;;;;;5003027;28;20038;-83
2022/05/02 10:01:06;;;;;;;1999.90;999.90;;;20.90;41.10;;;;;;4990426;28;20054;-84
2022/05/02 10:02:46;;;;;;;1999.90;999.90;;;20.90;40.80;;;;;;4986632;28;20428;-84
2022/05/02 10:05:18;;;;;;;1999.90;999.90;;;21.00;40.90;;;;;;4973054;28;20035;-83
2022/05/02 10:07:56;;;;;;;1999.90;999.90;;;21.10;40.50;;;;;;4990065;28;20038;-83
2022/05/02 10:10:56;;;;;;;1999.90;999.90;;;21.10;40.50;;;;;;4974500;28;20482;-83
2022/05/02 10:14:02;;;;;;;1999.90;999.90;;;21.00;40.50;;;;;;4978219;28;20061;-84
2022/05/02 10:16:52;;;;;;;1999.90;999.90;;;21.00;40.60;;;;;;4976831;28;20423;-84
2022/05/02 10:19:40;;;;;;;1999.90;999.90;;;21.00;40.60;;;;;;4988815;28;20041;-83
2022/05/02 10:22:50;;;;;;;1999.90;999.90;;;21.20;40.50;;;;;;5027803;28;20037;-84
2022/05/02 10:25:41;;;;;;;1999.90;999.90;;;21.30;40.20;;;;;;5032098;28;20046;-84
2022/05/02 10:28:57;;;;;;;1999.90;999.90;;;21.30;40.10;;;;;;5022453;28;20022;-83
2022/05/02 10:31:26;;;;;;;1999.90;999.90;;;21.40;40.00;;;;;;5009837;28;20042;-84
2022/05/02 10:33:53;;;;;;;1999.90;999.90;;;21.40;39.80;;;;;;4993972;28;20050;-83
2022/05/02 10:36:20;;;;;;;1999.90;999.90;;;21.40;39.80;;;;;;5008899;28;20041;-83
2022/05/02 10:38:54;;;;;;;1999.90;999.90;;;21.40;39.70;;;;;;4979815;28;20034;-84
2022/05/02 10:41:27;;;;;;;1999.90;999.90;;;21.50;39.60;;;;;;5015527;28;20084;-84
2022/05/02 10:44:03;;;;;;;1999.90;999.90;;;21.50;39.40;;;;;;5015854;28;20037;-84
2022/05/02 10:46:31;;;;;;;1999.90;999.90;;;21.60;39.50;;;;;;5009430;28;20044;-84
2022/05/02 10:49:08;;;;;;;1999.90;999.90;;;21.70;39.40;;;;;;5009024;28;20486;-84
2022/05/02 10:51:55;;;;;;;1999.90;999.90;;;21.80;39.20;;;;;;4989803;28;20033;-84
2022/05/02 10:54:41;;;;;;;1999.90;999.90;;;21.90;39.10;;;;;;5023364;28;20044;-84
2022/05/02 10:57:39;;;;;;;1999.90;999.90;;;21.90;38.90;;;;;;4988418;28;20041;-84
2022/05/02 11:00:10;;;;;;;1999.90;999.90;;;22.00;38.90;;;;;;5000602;28;20044;-83
2022/05/02 11:02:55;;;;;;;1999.90;999.90;;;21.90;38.80;;;;;;5026416;28;20045;-84
2022/05/02 11:05:28;;;;;;;1999.90;999.90;;;21.90;38.80;;;;;;5027523;28;20030;-84
2022/05/02 11:08:01;;;;;;;1999.90;999.90;;;21.90;38.70;;;;;;5034936;28;20025;-84
2022/05/02 11:10:29;;;;;;;1999.90;999.90;;;22.00;38.60;;;;;;5027102;28;20033;-84
2022/05/02 11:13:14;;;;;;;1999.90;999.90;;;21.90;38.40;;;;;;5013179;28;20037;-83
2022/05/02 11:15:54;;;;;;;1999.90;999.90;;;21.80;38.30;;;;;;4995361;28;20054;-83
2022/05/02 11:21:41;;;;;;;1999.90;999.90;;;21.90;38.20;;;;;;5029099;28;20041;-84
2022/05/02 11:24:47;;;;;;;1999.90;999.90;;;22.00;38.20;;;;;;5009332;28;20049;-84
2022/05/02 11:27:41;;;;;;;1999.90;999.90;;;22.10;38.10;;;;;;5023153;28;20364;-84
2022/05/02 11:30:10;;;;;;;1999.90;999.90;;;22.10;37.80;;;;;;4994727;28;20029;-84
2022/05/02 11:32:43;;;;;;;1999.90;999.90;;;22.20;37.80;;;;;;4994819;28;20056;-84
2022/05/02 11:35:33;;;;;;;1999.90;999.90;;;22.10;37.60;;;;;;5003566;28;20439;-84
2022/05/02 11:38:44;;;;;;;1999.90;999.90;;;22.10;37.60;;;;;;5012464;28;20467;-84
2022/05/02 11:41:14;;;;;;;1999.90;999.90;;;22.10;37.30;;;;;;4983135;28;20057;-84
2022/05/02 11:43:41;;;;;;;1999.90;999.90;;;22.20;37.10;;;;;;4963892;28;20423;-83
2022/05/02 11:46:24;;;;;;;1999.90;999.90;;;22.20;37.00;;;;;;4957523;28;20065;-84
2022/05/02 11:49:14;;;;;;;1999.90;999.90;;;22.20;37.00;;;;;;4974658;28;20046;-83
2022/05/02 11:51:45;;;;;;;1999.90;999.90;;;22.20;36.60;;;;;;4973277;28;20038;-83
2022/05/02 11:54:20;;;;;;;1999.90;999.90;;;22.00;36.40;;;;;;4958503;28;20174;-84
2022/05/02 11:57:07;;;;;;;1999.90;999.90;;;22.00;36.60;;;;;;4977418;28;20038;-84
2022/05/02 12:00:07;;;;;;;1999.90;999.90;;;22.00;36.40;;;;;;4955103;28;20493;-84
2022/05/02 12:02:42;;;;;;;1999.90;999.90;;;22.00;36.00;;;;;;4976035;28;20090;-84
2022/05/02 12:05:23;;;;;;;1999.90;999.90;;;22.00;36.00;;;;;;4976109;28;20046;-84
2022/05/02 12:07:51;;;;;;;1999.90;999.90;;;22.10;35.80;;;;;;4974365;28;20042;-84
2022/05/02 12:10:18;;;;;;;1999.90;999.90;;;22.20;35.80;;;;;;4979636;28;20030;-84
2022/05/02 12:12:49;;;;;;;1999.90;999.90;;;22.20;35.70;;;;;;5016867;28;20056;-84
2022/05/02 12:15:15;;;;;;;1999.90;999.90;;;22.30;35.70;;;;;;5031885;28;20510;-84
2022/05/02 12:17:54;;;;;;;1999.90;999.90;;;22.40;35.30;;;;;;5016016;28;20042;-84
2022/05/02 12:20:33;;;;;;;1999.90;999.90;;;22.40;35.30;;;;;;5029191;28;20414;-84
2022/05/02 12:23:02;;;;;;;1999.90;999.90;;;22.50;35.20;;;;;;5028734;28;20025;-83
2022/05/02 12:25:28;;;;;;;1999.90;999.90;;;22.50;35.10;;;;;;5030468;28;20033;-84
2022/05/02 12:27:58;;;;;;;1999.90;999.90;;;22.50;35.10;;;;;;5025286;28;20025;-84
2022/05/02 12:30:27;;;;;;;1999.90;999.90;;;22.60;35.00;;;;;;5045124;28;20042;-84
2022/05/02 12:32:53;;;;;;;1999.90;999.90;;;22.60;35.10;;;;;;5015032;28;20030;-84
2022/05/02 12:35:22;;;;;;;1999.90;999.90;;;22.60;35.10;;;;;;5012437;28;20386;-84
2022/05/02 12:37:49;;;;;;;1999.90;999.90;;;22.60;34.90;;;;;;5012177;28;20025;-84
2022/05/02 12:40:18;;;;;;;1999.90;999.90;;;22.60;35.00;;;;;;4998422;28;20041;-83
2022/05/02 12:42:51;;;;;;;1999.90;999.90;;;22.50;35.00;;;;;;5030083;28;20041;-84
2022/05/02 12:45:19;;;;;;;1999.90;999.90;;;22.50;35.20;;;;;;5045158;28;20052;-84
2022/05/02 12:47:45;;;;;;;1999.90;999.90;;;22.40;35.20;;;;;;5031617;28;20044;-84
2022/05/02 12:50:14;;;;;;;1999.90;999.90;;;22.40;35.20;;;;;;5028770;28;20038;-83
2022/05/02 12:52:45;;;;;;;1999.90;999.90;;;22.50;35.20;;;;;;5029489;28;20233;-84
2022/05/02 12:55:11;;;;;;;;;;;22.50;35.20;;;;;;5030081;28;20403;-84
2022/05/02 13:00:32;;;;;;;1999.90;999.90;;;22.50;35.00;;;;;;5032824;28;20037;-84
2022/05/02 13:03:18;;;;;;;1999.90;999.90;;;22.50;35.10;;;;;;5016583;28;20030;-83
2022/05/02 13:05:52;;;;;;;1999.90;999.90;;;22.50;35.20;;;;;;5030338;28;20041;-84